sensor_id;sensor_type;location;lat;lon;timestamp;P1;durP1;ratioP1;P2;durP2;ratioP2
53867;SDS011;41577;47.470;19.080;2022-08-02T00:00:14;1.42;;;1.33;;
53867;SDS011;41577;47.470;19.080;2022-08-02T00:00:28;1.45;;;1.35;;
53867;SDS011;41577;47.470;19.080;2022-08-02T00:00:42;1.42;;;1.27;;
53867;SDS011;41577;47.470;19.080;2022-08-02T00:00:57;3.80;;;1.27;;
53867;SDS011;41577;47.470;19.080;2022-08-02T00:01:12;4.00;;;1.40;;
53867;SDS011;41577;47.470;19.080;2022-08-02T00:01:26;1.60;;;1.40;;
53867;SDS011;41577;47.470;19.080;2022-08-02T00:01:40;1.25;;;1.15;;
53867;SDS011;41577;47.470;19.080;2022-08-02T00:01:55;1.25;;;1.17;;
53867;SDS011;41577;47.470;19.080;2022-08-02T00:02:09;1.65;;;1.33;;
53867;SDS011;41577;47.470;19.080;2022-08-02T00:02:24;2.38;;;1.45;;
53867;SDS011;41577;47.470;19.080;2022-08-02T00:02:40;2.35;;;1.50;;
53867;SDS011;41577;47.470;19.080;2022-08-02T00:02:54;2.25;;;1.60;;
53867;SDS011;41577;47.470;19.080;2022-08-02T00:03:09;1.55;;;1.40;;
53867;SDS011;41577;47.470;19.080;2022-08-02T00:03:25;1.05;;;1.05;;
53867;SDS011;41577;47.470;19.080;2022-08-02T00:03:40;1.98;;;1.13;;
53867;SDS011;41577;47.470;19.080;2022-08-02T00:03:55;2.72;;;1.42;;
53867;SDS011;41577;47.470;19.080;2022-08-02T00:04:09;1.65;;;1.40;;
53867;SDS011;41577;47.470;19.080;2022-08-02T00:04:24;3.08;;;1.38;;
53867;SDS011;41577;47.470;19.080;2022-08-02T00:04:38;3.13;;;1.25;;
53867;SDS011;41577;47.470;19.080;2022-08-02T00:04:54;1.45;;;1.10;;
53867;SDS011;41577;47.470;19.080;2022-08-02T00:05:10;1.33;;;1.05;;
53867;SDS011;41577;47.470;19.080;2022-08-02T00:05:25;1.23;;;1.05;;
53867;SDS011;41577;47.470;19.080;2022-08-02T00:05:40;3.00;;;1.20;;
53867;SDS011;41577;47.470;19.080;2022-08-02T00:05:55;4.05;;;1.20;;
53867;SDS011;41577;47.470;19.080;2022-08-02T00:06:09;6.60;;;1.00;;
53867;SDS011;41577;47.470;19.080;2022-08-02T00:06:24;5.50;;;1.10;;
53867;SDS011;41577;47.470;19.080;2022-08-02T00:06:38;1.25;;;1.15;;
53867;SDS011;41577;47.470;19.080;2022-08-02T00:06:52;2.25;;;1.30;;
53867;SDS011;41577;47.470;19.080;2022-08-02T00:07:08;5.00;;;1.40;;
53867;SDS011;41577;47.470;19.080;2022-08-02T00:07:22;4.70;;;1.40;;
53867;SDS011;41577;47.470;19.080;2022-08-02T00:07:37;2.28;;;1.42;;
53867;SDS011;41577;47.470;19.080;2022-08-02T00:07:52;2.20;;;1.50;;
53867;SDS011;41577;47.470;19.080;2022-08-02T00:08:07;1.92;;;1.33;;
53867;SDS011;41577;47.470;19.080;2022-08-02T00:08:21;1.13;;;1.02;;
53867;SDS011;41577;47.470;19.080;2022-08-02T00:08:38;1.55;;;1.15;;
53867;SDS011;41577;47.470;19.080;2022-08-02T00:08:52;6.45;;;1.50;;
53867;SDS011;41577;47.470;19.080;2022-08-02T00:09:08;5.20;;;1.50;;
53867;SDS011;41577;47.470;19.080;2022-08-02T00:09:22;1.55;;;1.40;;
53867;SDS011;41577;47.470;19.080;2022-08-02T00:09:37;1.50;;;1.40;;
53867;SDS011;41577;47.470;19.080;2022-08-02T00:09:51;1.45;;;1.25;;
53867;SDS011;41577;47.470;19.080;2022-08-02T00:10:07;1.48;;;1.38;;
53867;SDS011;41577;47.470;19.080;2022-08-02T00:10:22;2.85;;;1.77;;
53867;SDS011;41577;47.470;19.080;2022-08-02T00:10:38;2.80;;;1.60;;
53867;SDS011;41577;47.470;19.080;2022-08-02T00:10:52;1.42;;;1.33;;
53867;SDS011;41577;47.470;19.080;2022-08-02T00:11:07;1.50;;;1.40;;
53867;SDS011;41577;47.470;19.080;2022-08-02T00:11:22;2.03;;;1.63;;
53867;SDS011;41577;47.470;19.080;2022-08-02T00:11:36;2.28;;;1.60;;
53867;SDS011;41577;47.470;19.080;2022-08-02T00:11:50;2.90;;;1.50;;
53867;SDS011;41577;47.470;19.080;2022-08-02T00:12:06;3.33;;;1.35;;
53867;SDS011;41577;47.470;19.080;2022-08-02T00:12:21;2.17;;;1.20;;
53867;SDS011;41577;47.470;19.080;2022-08-02T00:12:35;1.38;;;1.27;;
53867;SDS011;41577;47.470;19.080;2022-08-02T00:12:49;1.98;;;1.27;;
53867;SDS011;41577;47.470;19.080;2022-08-02T00:13:03;2.33;;;1.40;;
53867;SDS011;41577;47.470;19.080;2022-08-02T00:13:17;1.92;;;1.52;;
53867;SDS011;41577;47.470;19.080;2022-08-02T00:13:32;1.50;;;1.35;;
53867;SDS011;41577;47.470;19.080;2022-08-02T00:13:46;1.90;;;1.38;;
53867;SDS011;41577;47.470;19.080;2022-08-02T00:14:01;2.42;;;1.33;;
53867;SDS011;41577;47.470;19.080;2022-08-02T00:14:15;2.78;;;1.35;;
53867;SDS011;41577;47.470;19.080;2022-08-02T00:14:29;2.40;;;1.40;;
53867;SDS011;41577;47.470;19.080;2022-08-02T00:14:44;1.75;;;1.30;;
53867;SDS011;41577;47.470;19.080;2022-08-02T00:14:58;1.33;;;1.00;;
53867;SDS011;41577;47.470;19.080;2022-08-02T00:15:13;1.20;;;1.10;;
53867;SDS011;41577;47.470;19.080;2022-08-02T00:15:27;1.08;;;1.02;;
53867;SDS011;41577;47.470;19.080;2022-08-02T00:15:41;1.23;;;1.20;;
53867;SDS011;41577;47.470;19.080;2022-08-02T00:15:55;1.40;;;1.30;;
53867;SDS011;41577;47.470;19.080;2022-08-02T00:16:10;1.25;;;1.15;;
53867;SDS011;41577;47.470;19.080;2022-08-02T00:16:24;1.33;;;1.23;;
53867;SDS011;41577;47.470;19.080;2022-08-02T00:16:38;1.52;;;1.30;;
53867;SDS011;41577;47.470;19.080;2022-08-02T00:16:53;1.55;;;1.35;;
53867;SDS011;41577;47.470;19.080;2022-08-02T00:17:07;1.70;;;1.30;;
53867;SDS011;41577;47.470;19.080;2022-08-02T00:17:23;2.83;;;1.20;;
53867;SDS011;41577;47.470;19.080;2022-08-02T00:17:39;2.50;;;1.20;;
53867;SDS011;41577;47.470;19.080;2022-08-02T00:17:54;1.83;;;1.30;;
53867;SDS011;41577;47.470;19.080;2022-08-02T00:18:08;2.83;;;1.30;;
53867;SDS011;41577;47.470;19.080;2022-08-02T00:18:22;3.40;;;1.20;;
53867;SDS011;41577;47.470;19.080;2022-08-02T00:18:36;3.33;;;1.30;;
53867;SDS011;41577;47.470;19.080;2022-08-02T00:18:50;2.90;;;1.30;;
53867;SDS011;41577;47.470;19.080;2022-08-02T00:19:06;1.65;;;1.10;;
53867;SDS011;41577;47.470;19.080;2022-08-02T00:19:20;1.98;;;1.25;;
53867;SDS011;41577;47.470;19.080;2022-08-02T00:19:34;2.42;;;1.42;;
53867;SDS011;41577;47.470;19.080;2022-08-02T00:19:49;1.70;;;1.23;;
53867;SDS011;41577;47.470;19.080;2022-08-02T00:20:03;1.67;;;1.13;;
53867;SDS011;41577;47.470;19.080;2022-08-02T00:20:18;2.47;;;1.40;;
53867;SDS011;41577;47.470;19.080;2022-08-02T00:20:33;1.73;;;1.25;;
53867;SDS011;41577;47.470;19.080;2022-08-02T00:20:48;1.02;;;1.00;;
53867;SDS011;41577;47.470;19.080;2022-08-02T00:21:02;1.70;;;1.05;;
53867;SDS011;41577;47.470;19.080;2022-08-02T00:21:17;2.60;;;1.40;;
53867;SDS011;41577;47.470;19.080;2022-08-02T00:21:32;2.35;;;1.50;;
53867;SDS011;41577;47.470;19.080;2022-08-02T00:21:48;1.58;;;1.38;;
53867;SDS011;41577;47.470;19.080;2022-08-02T00:22:04;1.65;;;1.45;;
53867;SDS011;41577;47.470;19.080;2022-08-02T00:22:18;2.15;;;1.40;;
53867;SDS011;41577;47.470;19.080;2022-08-02T00:22:32;1.60;;;1.17;;
53867;SDS011;41577;47.470;19.080;2022-08-02T00:22:47;2.00;;;1.45;;
53867;SDS011;41577;47.470;19.080;2022-08-02T00:23:02;3.15;;;1.40;;
53867;SDS011;41577;47.470;19.080;2022-08-02T00:23:17;2.28;;;1.27;;
53867;SDS011;41577;47.470;19.080;2022-08-02T00:23:32;2.38;;;1.40;;
53867;SDS011;41577;47.470;19.080;2022-08-02T00:23:48;4.32;;;1.20;;
53867;SDS011;41577;47.470;19.080;2022-08-02T00:24:02;3.38;;;1.10;;
53867;SDS011;41577;47.470;19.080;2022-08-02T00:24:17;1.20;;;1.10;;
53867;SDS011;41577;47.470;19.080;2022-08-02T00:24:31;1.10;;;1.10;;
53867;SDS011;41577;47.470;19.080;2022-08-02T00:24:46;1.20;;;1.10;;
53867;SDS011;41577;47.470;19.080;2022-08-02T00:25:01;1.30;;;1.20;;
53867;SDS011;41577;47.470;19.080;2022-08-02T00:25:15;3.80;;;1.23;;
53867;SDS011;41577;47.470;19.080;2022-08-02T00:25:30;6.75;;;1.30;;
53867;SDS011;41577;47.470;19.080;2022-08-02T00:25:45;5.38;;;1.42;;
53867;SDS011;41577;47.470;19.080;2022-08-02T00:25:59;2.95;;;1.42;;
53867;SDS011;41577;47.470;19.080;2022-08-02T00:26:14;2.38;;;1.40;;
53867;SDS011;41577;47.470;19.080;2022-08-02T00:26:28;7.90;;;1.35;;
53867;SDS011;41577;47.470;19.080;2022-08-02T00:26:43;7.28;;;1.20;;
53867;SDS011;41577;47.470;19.080;2022-08-02T00:26:57;1.30;;;1.02;;
53867;SDS011;41577;47.470;19.080;2022-08-02T00:27:11;4.78;;;1.27;;
53867;SDS011;41577;47.470;19.080;2022-08-02T00:27:26;4.63;;;1.27;;
53867;SDS011;41577;47.470;19.080;2022-08-02T00:27:42;1.30;;;1.00;;
53867;SDS011;41577;47.470;19.080;2022-08-02T00:27:57;2.00;;;1.20;;
53867;SDS011;41577;47.470;19.080;2022-08-02T00:28:12;1.70;;;1.10;;
53867;SDS011;41577;47.470;19.080;2022-08-02T00:28:26;1.13;;;0.90;;
53867;SDS011;41577;47.470;19.080;2022-08-02T00:28:42;1.15;;;0.98;;
53867;SDS011;41577;47.470;19.080;2022-08-02T00:28:56;1.25;;;1.15;;
53867;SDS011;41577;47.470;19.080;2022-08-02T00:29:11;1.45;;;1.30;;
53867;SDS011;41577;47.470;19.080;2022-08-02T00:29:27;1.52;;;1.42;;
53867;SDS011;41577;47.470;19.080;2022-08-02T00:29:41;1.48;;;1.35;;
53867;SDS011;41577;47.470;19.080;2022-08-02T00:29:55;2.55;;;1.15;;
53867;SDS011;41577;47.470;19.080;2022-08-02T00:30:11;3.30;;;1.27;;
53867;SDS011;41577;47.470;19.080;2022-08-02T00:30:25;1.85;;;1.40;;
53867;SDS011;41577;47.470;19.080;2022-08-02T00:30:40;1.52;;;1.42;;
53867;SDS011;41577;47.470;19.080;2022-08-02T00:30:56;1.65;;;1.45;;
53867;SDS011;41577;47.470;19.080;2022-08-02T00:31:10;2.42;;;1.20;;
53867;SDS011;41577;47.470;19.080;2022-08-02T00:31:27;1.83;;;0.95;;
53867;SDS011;41577;47.470;19.080;2022-08-02T00:31:42;1.50;;;1.40;;
53867;SDS011;41577;47.470;19.080;2022-08-02T00:31:56;2.85;;;1.83;;
53867;SDS011;41577;47.470;19.080;2022-08-02T00:32:11;2.50;;;1.48;;
53867;SDS011;41577;47.470;19.080;2022-08-02T00:32:26;1.35;;;1.25;;
53867;SDS011;41577;47.470;19.080;2022-08-02T00:32:41;1.88;;;1.40;;
53867;SDS011;41577;47.470;19.080;2022-08-02T00:32:55;2.13;;;1.23;;
53867;SDS011;41577;47.470;19.080;2022-08-02T00:33:09;4.00;;;1.33;;
53867;SDS011;41577;47.470;19.080;2022-08-02T00:33:23;6.95;;;1.48;;
53867;SDS011;41577;47.470;19.080;2022-08-02T00:33:39;4.60;;;1.23;;
53867;SDS011;41577;47.470;19.080;2022-08-02T00:33:55;2.53;;;1.10;;
53867;SDS011;41577;47.470;19.080;2022-08-02T00:34:09;2.88;;;1.27;;
53867;SDS011;41577;47.470;19.080;2022-08-02T00:34:23;1.92;;;1.48;;
53867;SDS011;41577;47.470;19.080;2022-08-02T00:34:39;2.40;;;1.58;;
53867;SDS011;41577;47.470;19.080;2022-08-02T00:34:54;2.13;;;1.45;;
53867;SDS011;41577;47.470;19.080;2022-08-02T00:35:10;2.10;;;1.50;;
53867;SDS011;41577;47.470;19.080;2022-08-02T00:35:24;2.08;;;1.40;;
53867;SDS011;41577;47.470;19.080;2022-08-02T00:35:40;2.50;;;1.10;;
53867;SDS011;41577;47.470;19.080;2022-08-02T00:35:54;2.13;;;1.17;;
53867;SDS011;41577;47.470;19.080;2022-08-02T00:36:08;4.85;;;1.50;;
53867;SDS011;41577;47.470;19.080;2022-08-02T00:36:22;5.38;;;1.65;;
53867;SDS011;41577;47.470;19.080;2022-08-02T00:36:38;2.10;;;1.50;;
53867;SDS011;41577;47.470;19.080;2022-08-02T00:36:52;3.25;;;1.70;;
53867;SDS011;41577;47.470;19.080;2022-08-02T00:37:08;3.20;;;1.60;;
53867;SDS011;41577;47.470;19.080;2022-08-02T00:37:22;2.58;;;2.17;;
53867;SDS011;41577;47.470;19.080;2022-08-02T00:37:39;5.65;;;5.13;;
53867;SDS011;41577;47.470;19.080;2022-08-02T00:37:55;9.20;;;8.02;;
53867;SDS011;41577;47.470;19.080;2022-08-02T00:38:09;10.40;;;8.80;;
53867;SDS011;41577;47.470;19.080;2022-08-02T00:38:23;11.25;;;9.38;;
53867;SDS011;41577;47.470;19.080;2022-08-02T00:38:38;8.85;;;7.97;;
53867;SDS011;41577;47.470;19.080;2022-08-02T00:38:53;6.70;;;6.03;;
53867;SDS011;41577;47.470;19.080;2022-08-02T00:39:09;5.95;;;5.18;;
53867;SDS011;41577;47.470;19.080;2022-08-02T00:39:24;4.63;;;4.05;;
53867;SDS011;41577;47.470;19.080;2022-08-02T00:39:40;6.50;;;2.33;;
53867;SDS011;41577;47.470;19.080;2022-08-02T00:39:55;8.00;;;2.28;;
53867;SDS011;41577;47.470;19.080;2022-08-02T00:40:10;6.72;;;2.10;;
53867;SDS011;41577;47.470;19.080;2022-08-02T00:40:24;6.20;;;1.70;;
53867;SDS011;41577;47.470;19.080;2022-08-02T00:40:39;5.05;;;1.70;;
53867;SDS011;41577;47.470;19.080;2022-08-02T00:40:54;2.60;;;1.80;;
53867;SDS011;41577;47.470;19.080;2022-08-02T00:41:12;2.90;;;1.95;;
53867;SDS011;41577;47.470;19.080;2022-08-02T00:41:28;2.60;;;2.08;;
53867;SDS011;41577;47.470;19.080;2022-08-02T00:41:46;1.98;;;1.73;;
53867;SDS011;41577;47.470;19.080;2022-08-02T00:42:02;1.50;;;1.40;;
53867;SDS011;41577;47.470;19.080;2022-08-02T00:42:17;1.52;;;1.42;;
53867;SDS011;41577;47.470;19.080;2022-08-02T00:42:33;1.48;;;1.38;;
53867;SDS011;41577;47.470;19.080;2022-08-02T00:42:59;2.30;;;1.58;;
53867;SDS011;41577;47.470;19.080;2022-08-02T00:43:13;2.38;;;1.42;;
53867;SDS011;41577;47.470;19.080;2022-08-02T00:43:28;1.55;;;1.40;;
53867;SDS011;41577;47.470;19.080;2022-08-02T00:43:43;2.60;;;1.45;;
53867;SDS011;41577;47.470;19.080;2022-08-02T00:43:59;2.78;;;1.38;;
53867;SDS011;41577;47.470;19.080;2022-08-02T00:44:14;1.52;;;1.30;;
53867;SDS011;41577;47.470;19.080;2022-08-02T00:44:28;1.58;;;1.27;;
53867;SDS011;41577;47.470;19.080;2022-08-02T00:44:42;1.48;;;1.38;;
53867;SDS011;41577;47.470;19.080;2022-08-02T00:44:56;1.85;;;1.55;;
53867;SDS011;41577;47.470;19.080;2022-08-02T00:45:11;3.13;;;1.58;;
53867;SDS011;41577;47.470;19.080;2022-08-02T00:45:26;3.03;;;1.48;;
53867;SDS011;41577;47.470;19.080;2022-08-02T00:45:41;2.22;;;1.65;;
53867;SDS011;41577;47.470;19.080;2022-08-02T00:45:56;2.63;;;1.70;;
53867;SDS011;41577;47.470;19.080;2022-08-02T00:46:10;2.17;;;1.75;;
53867;SDS011;41577;47.470;19.080;2022-08-02T00:46:25;2.65;;;1.85;;
53867;SDS011;41577;47.470;19.080;2022-08-02T00:46:40;3.10;;;1.70;;
53867;SDS011;41577;47.470;19.080;2022-08-02T00:46:54;1.80;;;1.35;;
53867;SDS011;41577;47.470;19.080;2022-08-02T00:47:08;1.92;;;1.40;;
53867;SDS011;41577;47.470;19.080;2022-08-02T00:47:22;2.45;;;1.65;;
53867;SDS011;41577;47.470;19.080;2022-08-02T00:47:37;1.80;;;1.70;;
53867;SDS011;41577;47.470;19.080;2022-08-02T00:47:51;1.90;;;1.80;;
53867;SDS011;41577;47.470;19.080;2022-08-02T00:48:07;1.90;;;1.80;;
53867;SDS011;41577;47.470;19.080;2022-08-02T00:48:23;1.80;;;1.70;;
53867;SDS011;41577;47.470;19.080;2022-08-02T00:48:37;2.35;;;1.63;;
53867;SDS011;41577;47.470;19.080;2022-08-02T00:48:52;3.10;;;1.63;;
53867;SDS011;41577;47.470;19.080;2022-08-02T00:49:08;2.10;;;1.50;;
53867;SDS011;41577;47.470;19.080;2022-08-02T00:49:22;3.10;;;1.40;;
53867;SDS011;41577;47.470;19.080;2022-08-02T00:49:36;2.85;;;1.33;;
53867;SDS011;41577;47.470;19.080;2022-08-02T00:49:52;2.10;;;1.80;;
53867;SDS011;41577;47.470;19.080;2022-08-02T00:50:07;2.95;;;1.80;;
53867;SDS011;41577;47.470;19.080;2022-08-02T00:50:22;1.90;;;1.42;;
53867;SDS011;41577;47.470;19.080;2022-08-02T00:50:37;1.70;;;1.60;;
53867;SDS011;41577;47.470;19.080;2022-08-02T00:50:52;2.33;;;1.90;;
53867;SDS011;41577;47.470;19.080;2022-08-02T00:51:06;2.95;;;2.20;;
53867;SDS011;41577;47.470;19.080;2022-08-02T00:51:22;3.92;;;1.88;;
53867;SDS011;41577;47.470;19.080;2022-08-02T00:51:36;3.85;;;1.70;;
53867;SDS011;41577;47.470;19.080;2022-08-02T00:51:50;3.55;;;1.65;;
53867;SDS011;41577;47.470;19.080;2022-08-02T00:52:05;2.60;;;1.38;;
53867;SDS011;41577;47.470;19.080;2022-08-02T00:52:21;1.98;;;1.77;;
53867;SDS011;41577;47.470;19.080;2022-08-02T00:52:35;1.77;;;1.67;;
53867;SDS011;41577;47.470;19.080;2022-08-02T00:52:50;1.20;;;1.10;;
53867;SDS011;41577;47.470;19.080;2022-08-02T00:53:05;1.25;;;1.15;;
53867;SDS011;41577;47.470;19.080;2022-08-02T00:53:21;1.30;;;1.20;;
53867;SDS011;41577;47.470;19.080;2022-08-02T00:53:36;1.45;;;1.35;;
53867;SDS011;41577;47.470;19.080;2022-08-02T00:54:11;4.55;;;1.70;;
53867;SDS011;41577;47.470;19.080;2022-08-02T00:54:27;2.38;;;1.60;;
53867;SDS011;41577;47.470;19.080;2022-08-02T00:54:41;2.42;;;1.50;;
53867;SDS011;41577;47.470;19.080;2022-08-02T00:54:55;1.35;;;1.25;;
53867;SDS011;41577;47.470;19.080;2022-08-02T00:55:09;1.50;;;1.40;;
53867;SDS011;41577;47.470;19.080;2022-08-02T00:55:25;1.70;;;1.60;;
53867;SDS011;41577;47.470;19.080;2022-08-02T00:55:40;1.50;;;1.40;;
53867;SDS011;41577;47.470;19.080;2022-08-02T00:55:54;1.52;;;1.33;;
53867;SDS011;41577;47.470;19.080;2022-08-02T00:56:09;1.60;;;1.42;;
53867;SDS011;41577;47.470;19.080;2022-08-02T00:56:24;1.70;;;1.50;;
53867;SDS011;41577;47.470;19.080;2022-08-02T00:56:39;2.20;;;1.42;;
53867;SDS011;41577;47.470;19.080;2022-08-02T00:56:53;2.45;;;1.48;;
53867;SDS011;41577;47.470;19.080;2022-08-02T00:57:07;1.60;;;1.33;;
53867;SDS011;41577;47.470;19.080;2022-08-02T00:57:22;3.78;;;1.42;;
53867;SDS011;41577;47.470;19.080;2022-08-02T00:57:36;3.80;;;1.50;;
53867;SDS011;41577;47.470;19.080;2022-08-02T00:57:51;2.63;;;1.45;;
53867;SDS011;41577;47.470;19.080;2022-08-02T00:58:06;3.97;;;1.88;;
53867;SDS011;41577;47.470;19.080;2022-08-02T00:58:21;2.83;;;1.58;;
53867;SDS011;41577;47.470;19.080;2022-08-02T00:58:36;2.30;;;1.10;;
53867;SDS011;41577;47.470;19.080;2022-08-02T00:58:50;1.98;;;0.98;;
53867;SDS011;41577;47.470;19.080;2022-08-02T00:59:06;1.73;;;1.10;;
53867;SDS011;41577;47.470;19.080;2022-08-02T00:59:22;2.83;;;1.48;;
53867;SDS011;41577;47.470;19.080;2022-08-02T00:59:36;2.10;;;1.48;;
53867;SDS011;41577;47.470;19.080;2022-08-02T00:59:50;1.38;;;1.23;;
53867;SDS011;41577;47.470;19.080;2022-08-02T01:00:05;1.80;;;1.70;;
53867;SDS011;41577;47.470;19.080;2022-08-02T01:00:22;1.90;;;1.70;;
53867;SDS011;41577;47.470;19.080;2022-08-02T01:00:36;2.00;;;1.52;;
53867;SDS011;41577;47.470;19.080;2022-08-02T01:00:51;1.65;;;1.55;;
53867;SDS011;41577;47.470;19.080;2022-08-02T01:01:05;1.67;;;1.38;;
53867;SDS011;41577;47.470;19.080;2022-08-02T01:01:20;2.17;;;1.35;;
53867;SDS011;41577;47.470;19.080;2022-08-02T01:01:52;2.42;;;1.83;;
53867;SDS011;41577;47.470;19.080;2022-08-02T01:02:07;2.85;;;1.73;;
53867;SDS011;41577;47.470;19.080;2022-08-02T01:02:22;2.97;;;1.65;;
53867;SDS011;41577;47.470;19.080;2022-08-02T01:02:36;1.60;;;1.48;;
53867;SDS011;41577;47.470;19.080;2022-08-02T01:02:51;2.30;;;1.50;;
53867;SDS011;41577;47.470;19.080;2022-08-02T01:03:08;2.80;;;1.67;;
53867;SDS011;41577;47.470;19.080;2022-08-02T01:03:22;2.80;;;1.95;;
53867;SDS011;41577;47.470;19.080;2022-08-02T01:03:36;2.78;;;1.85;;
53867;SDS011;41577;47.470;19.080;2022-08-02T01:03:50;1.75;;;1.63;;
53867;SDS011;41577;47.470;19.080;2022-08-02T01:04:05;2.08;;;1.70;;
53867;SDS011;41577;47.470;19.080;2022-08-02T01:04:19;2.97;;;2.00;;
53867;SDS011;41577;47.470;19.080;2022-08-02T01:04:34;2.80;;;1.92;;
53867;SDS011;41577;47.470;19.080;2022-08-02T01:04:49;2.05;;;1.55;;
53867;SDS011;41577;47.470;19.080;2022-08-02T01:05:03;1.60;;;1.45;;
53867;SDS011;41577;47.470;19.080;2022-08-02T01:05:17;1.75;;;1.65;;
53867;SDS011;41577;47.470;19.080;2022-08-02T01:05:32;2.05;;;1.85;;
53867;SDS011;41577;47.470;19.080;2022-08-02T01:05:46;1.90;;;1.70;;
53867;SDS011;41577;47.470;19.080;2022-08-02T01:06:01;1.90;;;1.38;;
53867;SDS011;41577;47.470;19.080;2022-08-02T01:06:15;2.00;;;1.45;;
53867;SDS011;41577;47.470;19.080;2022-08-02T01:06:29;2.20;;;1.50;;
53867;SDS011;41577;47.470;19.080;2022-08-02T01:06:45;1.90;;;1.45;;
53867;SDS011;41577;47.470;19.080;2022-08-02T01:07:00;2.20;;;1.70;;
53867;SDS011;41577;47.470;19.080;2022-08-02T01:07:17;2.60;;;1.60;;
53867;SDS011;41577;47.470;19.080;2022-08-02T01:07:31;2.17;;;1.47;;
53867;SDS011;41577;47.470;19.080;2022-08-02T01:07:47;2.83;;;1.40;;
53867;SDS011;41577;47.470;19.080;2022-08-02T01:08:01;3.72;;;1.60;;
53867;SDS011;41577;47.470;19.080;2022-08-02T01:08:15;3.50;;;1.65;;
53867;SDS011;41577;47.470;19.080;2022-08-02T01:08:29;1.80;;;1.33;;
53867;SDS011;41577;47.470;19.080;2022-08-02T01:08:47;1.25;;;1.08;;
53867;SDS011;41577;47.470;19.080;2022-08-02T01:09:03;1.42;;;1.27;;
53867;SDS011;41577;47.470;19.080;2022-08-02T01:09:19;2.20;;;1.50;;
53867;SDS011;41577;47.470;19.080;2022-08-02T01:09:33;1.70;;;1.30;;
53867;SDS011;41577;47.470;19.080;2022-08-02T01:09:47;1.30;;;1.20;;
53867;SDS011;41577;47.470;19.080;2022-08-02T01:10:02;1.25;;;1.15;;
53867;SDS011;41577;47.470;19.080;2022-08-02T01:10:17;1.27;;;1.17;;
53867;SDS011;41577;47.470;19.080;2022-08-02T01:10:33;2.00;;;1.33;;
53867;SDS011;41577;47.470;19.080;2022-08-02T01:10:47;1.95;;;1.35;;
53867;SDS011;41577;47.470;19.080;2022-08-02T01:11:04;1.40;;;1.30;;
53867;SDS011;41577;47.470;19.080;2022-08-02T01:11:18;1.40;;;1.30;;
53867;SDS011;41577;47.470;19.080;2022-08-02T01:11:32;1.33;;;1.23;;
53867;SDS011;41577;47.470;19.080;2022-08-02T01:11:48;1.42;;;1.10;;
53867;SDS011;41577;47.470;19.080;2022-08-02T01:12:03;1.75;;;1.23;;
53867;SDS011;41577;47.470;19.080;2022-08-02T01:12:18;2.53;;;1.45;;
53867;SDS011;41577;47.470;19.080;2022-08-02T01:12:33;4.00;;;2.13;;
53867;SDS011;41577;47.470;19.080;2022-08-02T01:12:47;4.05;;;2.15;;
53867;SDS011;41577;47.470;19.080;2022-08-02T01:13:02;1.83;;;1.27;;
53867;SDS011;41577;47.470;19.080;2022-08-02T01:13:17;2.20;;;1.30;;
53867;SDS011;41577;47.470;19.080;2022-08-02T01:13:33;2.50;;;1.25;;
53867;SDS011;41577;47.470;19.080;2022-08-02T01:13:48;1.70;;;1.30;;
53867;SDS011;41577;47.470;19.080;2022-08-02T01:14:04;1.20;;;1.00;;
53867;SDS011;41577;47.470;19.080;2022-08-02T01:14:21;2.75;;;1.23;;
53867;SDS011;41577;47.470;19.080;2022-08-02T01:14:39;2.92;;;1.38;;
53867;SDS011;41577;47.470;19.080;2022-08-02T01:14:57;1.50;;;1.23;;
53867;SDS011;41577;47.470;19.080;2022-08-02T01:15:21;1.42;;;1.17;;
53867;SDS011;41577;47.470;19.080;2022-08-02T01:15:37;1.63;;;1.08;;
53867;SDS011;41577;47.470;19.080;2022-08-02T01:16:13;2.28;;;1.30;;
53867;SDS011;41577;47.470;19.080;2022-08-02T01:16:34;2.88;;;1.92;;
53867;SDS011;41577;47.470;19.080;2022-08-02T01:16:51;3.35;;;1.63;;
53867;SDS011;41577;47.470;19.080;2022-08-02T01:17:11;2.70;;;1.42;;
53867;SDS011;41577;47.470;19.080;2022-08-02T01:17:31;2.03;;;1.20;;
53867;SDS011;41577;47.470;19.080;2022-08-02T01:17:51;2.40;;;1.35;;
53867;SDS011;41577;47.470;19.080;2022-08-02T01:18:12;4.15;;;1.35;;
53867;SDS011;41577;47.470;19.080;2022-08-02T01:18:33;2.40;;;1.35;;
53867;SDS011;41577;47.470;19.080;2022-08-02T01:18:53;2.22;;;1.40;;
53867;SDS011;41577;47.470;19.080;2022-08-02T01:19:09;2.70;;;1.38;;
53867;SDS011;41577;47.470;19.080;2022-08-02T01:19:45;1.73;;;1.00;;
53867;SDS011;41577;47.470;19.080;2022-08-02T01:20:11;2.08;;;1.20;;
53867;SDS011;41577;47.470;19.080;2022-08-02T01:20:41;4.57;;;1.65;;
53867;SDS011;41577;47.470;19.080;2022-08-02T01:21:12;1.42;;;1.33;;
53867;SDS011;41577;47.470;19.080;2022-08-02T01:21:36;1.48;;;1.35;;
53867;SDS011;41577;47.470;19.080;2022-08-02T01:22:15;1.25;;;1.15;;
53867;SDS011;41577;47.470;19.080;2022-08-02T01:22:44;2.35;;;1.65;;
53867;SDS011;41577;47.470;19.080;2022-08-02T01:23:13;3.95;;;1.85;;
53867;SDS011;41577;47.470;19.080;2022-08-02T01:23:50;2.08;;;1.42;;
53867;SDS011;41577;47.470;19.080;2022-08-02T01:24:36;6.20;;;1.38;;
53867;SDS011;41577;47.470;19.080;2022-08-02T01:26:08;1.15;;;1.05;;
53867;SDS011;41577;47.470;19.080;2022-08-02T01:26:39;2.78;;;1.55;;
53867;SDS011;41577;47.470;19.080;2022-08-02T01:26:57;2.42;;;1.52;;
53867;SDS011;41577;47.470;19.080;2022-08-02T01:27:24;2.50;;;1.33;;
53867;SDS011;41577;47.470;19.080;2022-08-02T01:28:05;1.83;;;1.33;;
53867;SDS011;41577;47.470;19.080;2022-08-02T01:28:32;3.08;;;1.65;;
53867;SDS011;41577;47.470;19.080;2022-08-02T01:28:51;1.90;;;1.50;;
53867;SDS011;41577;47.470;19.080;2022-08-02T01:29:16;1.38;;;1.17;;
53867;SDS011;41577;47.470;19.080;2022-08-02T01:29:33;2.70;;;1.33;;
53867;SDS011;41577;47.470;19.080;2022-08-02T01:29:50;2.28;;;1.20;;
53867;SDS011;41577;47.470;19.080;2022-08-02T01:30:09;1.40;;;1.30;;
53867;SDS011;41577;47.470;19.080;2022-08-02T01:30:23;1.92;;;1.52;;
53867;SDS011;41577;47.470;19.080;2022-08-02T01:30:40;1.60;;;1.48;;
53867;SDS011;41577;47.470;19.080;2022-08-02T01:30:57;2.13;;;1.60;;
53867;SDS011;41577;47.470;19.080;2022-08-02T01:31:15;2.75;;;1.63;;
53867;SDS011;41577;47.470;19.080;2022-08-02T01:31:37;2.10;;;1.55;;
53867;SDS011;41577;47.470;19.080;2022-08-02T01:31:56;2.70;;;1.30;;
53867;SDS011;41577;47.470;19.080;2022-08-02T01:32:18;2.03;;;1.38;;
53867;SDS011;41577;47.470;19.080;2022-08-02T01:32:40;2.30;;;1.60;;
53867;SDS011;41577;47.470;19.080;2022-08-02T01:32:59;2.88;;;1.60;;
53867;SDS011;41577;47.470;19.080;2022-08-02T01:33:15;3.40;;;1.85;;
53867;SDS011;41577;47.470;19.080;2022-08-02T01:33:34;3.75;;;1.80;;
53867;SDS011;41577;47.470;19.080;2022-08-02T01:33:54;2.92;;;1.77;;
53867;SDS011;41577;47.470;19.080;2022-08-02T01:34:15;2.58;;;1.77;;
53867;SDS011;41577;47.470;19.080;2022-08-02T01:34:34;6.03;;;1.67;;
53867;SDS011;41577;47.470;19.080;2022-08-02T01:34:52;8.60;;;1.70;;
53867;SDS011;41577;47.470;19.080;2022-08-02T01:35:12;5.22;;;1.73;;
53867;SDS011;41577;47.470;19.080;2022-08-02T01:35:31;3.35;;;1.63;;
53867;SDS011;41577;47.470;19.080;2022-08-02T01:35:51;2.23;;;1.50;;
53867;SDS011;41577;47.470;19.080;2022-08-02T01:36:07;2.17;;;1.67;;
53867;SDS011;41577;47.470;19.080;2022-08-02T01:36:24;2.22;;;1.67;;
53867;SDS011;41577;47.470;19.080;2022-08-02T01:36:46;2.25;;;1.48;;
53867;SDS011;41577;47.470;19.080;2022-08-02T01:37:06;2.15;;;1.65;;
53867;SDS011;41577;47.470;19.080;2022-08-02T01:37:27;2.30;;;1.70;;
53867;SDS011;41577;47.470;19.080;2022-08-02T01:37:47;2.47;;;1.70;;